This is the latest recevied weather packets stored in our database for station/object K8BCO. If no packets are shown the sender has not sent any weather packets the latest 10 day(s).
| Time | Temp. | Humidity | Pressure | Rain* | Wind** | Luminosity | Snow |
|---|---|---|---|---|---|---|---|
| 1777312517 | 17.78° C | 58% | 1007.5 hPa | 0 mm | - | 464 W/m² | - |
| 1777311917 | 17.22° C | 57% | 1007.6 hPa | 0 mm | - | 816 W/m² | - |
| 1777311317 | 17.22° C | 58% | 1007.7 hPa | 0 mm | - | 734 W/m² | - |
| 1777310718 | 17.22° C | 59% | 1008 hPa | 0 mm | - | 560 W/m² | - |
| 1777310118 | 17.78° C | 57% | 1008.2 hPa | 0 mm | - | 467 W/m² | - |
| 1777309518 | 17.78° C | 56% | 1008.6 hPa | 0 mm | - | 577 W/m² | - |
| 1777308918 | 16.67° C | 59% | 1009 hPa | 0 mm | - | 619 W/m² | - |
| 1777308318 | 16.67° C | 60% | 1009.3 hPa | 0 mm | - | 407 W/m² | - |
| 1777307718 | 16.67° C | 60% | 1009.4 hPa | 0 mm | - | 470 W/m² | - |
| 1777307118 | 17.22° C | 58% | 1009.8 hPa | 0 mm | - | 633 W/m² | - |
| 1777306516 | 16.67° C | 59% | 1009.8 hPa | 0 mm | - | 843 W/m² | - |
| 1777305916 | 16.11° C | 60% | 1010 hPa | 0 mm | - | 724 W/m² | - |
| 1777305316 | 16.11° C | 59% | 1010 hPa | 0 mm | - | 694 W/m² | - |
| 1777304716 | 15.56° C | 60% | 1009.9 hPa | 0 mm | - | 596 W/m² | - |
| 1777304116 | 15.56° C | 60% | 1010.1 hPa | 0 mm | - | 570 W/m² | - |
| 1777303516 | 15.56° C | 60% | 1010.1 hPa | 0 mm | - | 600 W/m² | - |
| 1777302916 | 15° C | 62% | 1010.2 hPa | 0 mm | - | 791 W/m² | - |
| 1777302317 | 13.89° C | 64% | 1010.6 hPa | 0 mm | - | 679 W/m² | - |
| 1777301720 | 12.22° C | 69% | 1011.1 hPa | 0 mm | - | 643 W/m² | - |
| 1777301117 | 10.56° C | 73% | 1011.6 hPa | 0 mm | - | 408 W/m² | - |
| 1777300517 | 9.44° C | 77% | 1012 hPa | 0 mm | - | 387 W/m² | - |
| 1777299917 | 8.89° C | 78% | 1012.3 hPa | 0 mm | - | 225 W/m² | - |
| 1777299318 | 8.89° C | 78% | 1012.4 hPa | 0 mm | - | 228 W/m² | - |
| 1777298718 | 8.89° C | 79% | 1012.3 hPa | 0 mm | - | 217 W/m² | - |
| 1777298118 | 8.89° C | 80% | 1012.5 hPa | 0 mm | - | 232 W/m² | - |
* Rain latest hour (hover to see other rain measurements)
** Current wind speed in m/s (hover to see current wind gust speed)